sensor_id;sensor_type;location;lat;lon;timestamp;P1;durP1;ratioP1;P2;durP2;ratioP2
17947;SDS011;9099;47.958;11.366;2023-07-20T00:01:50;4.35;;;3.03;;
17947;SDS011;9099;47.958;11.366;2023-07-20T00:04:17;3.00;;;2.75;;
17947;SDS011;9099;47.958;11.366;2023-07-20T00:06:43;3.65;;;2.88;;
17947;SDS011;9099;47.958;11.366;2023-07-20T00:09:11;2.95;;;2.75;;
17947;SDS011;9099;47.958;11.366;2023-07-20T00:11:38;2.97;;;2.55;;
17947;SDS011;9099;47.958;11.366;2023-07-20T00:14:06;3.03;;;2.53;;
17947;SDS011;9099;47.958;11.366;2023-07-20T00:16:33;2.78;;;2.45;;
17947;SDS011;9099;47.958;11.366;2023-07-20T00:19:00;4.57;;;2.78;;
17947;SDS011;9099;47.958;11.366;2023-07-20T00:21:27;3.45;;;2.47;;
17947;SDS011;9099;47.958;11.366;2023-07-20T00:23:54;2.80;;;2.50;;
17947;SDS011;9099;47.958;11.366;2023-07-20T00:26:21;2.42;;;2.22;;
17947;SDS011;9099;47.958;11.366;2023-07-20T00:28:49;2.53;;;2.20;;
17947;SDS011;9099;47.958;11.366;2023-07-20T00:31:18;3.70;;;2.42;;
17947;SDS011;9099;47.958;11.366;2023-07-20T00:33:45;2.80;;;2.50;;
17947;SDS011;9099;47.958;11.366;2023-07-20T00:39:14;2.65;;;2.13;;
17947;SDS011;9099;47.958;11.366;2023-07-20T00:41:42;2.60;;;2.40;;
17947;SDS011;9099;47.958;11.366;2023-07-20T00:44:09;2.40;;;2.20;;
17947;SDS011;9099;47.958;11.366;2023-07-20T00:46:37;2.28;;;2.00;;
17947;SDS011;9099;47.958;11.366;2023-07-20T00:49:06;2.30;;;2.10;;
17947;SDS011;9099;47.958;11.366;2023-07-20T00:51:33;2.97;;;2.03;;
17947;SDS011;9099;47.958;11.366;2023-07-20T00:54:00;2.10;;;2.00;;
17947;SDS011;9099;47.958;11.366;2023-07-20T00:56:27;2.35;;;2.03;;
17947;SDS011;9099;47.958;11.366;2023-07-20T01:02:02;2.15;;;2.05;;
17947;SDS011;9099;47.958;11.366;2023-07-20T01:04:29;4.30;;;2.00;;
17947;SDS011;9099;47.958;11.366;2023-07-20T01:06:58;4.97;;;2.03;;
17947;SDS011;9099;47.958;11.366;2023-07-20T01:09:36;2.65;;;1.90;;
17947;SDS011;9099;47.958;11.366;2023-07-20T01:12:09;2.22;;;2.03;;
17947;SDS011;9099;47.958;11.366;2023-07-20T01:14:39;2.65;;;2.17;;
17947;SDS011;9099;47.958;11.366;2023-07-20T01:17:08;2.40;;;2.05;;
17947;SDS011;9099;47.958;11.366;2023-07-20T01:19:35;2.17;;;1.90;;
17947;SDS011;9099;47.958;11.366;2023-07-20T01:22:03;3.67;;;2.10;;
17947;SDS011;9099;47.958;11.366;2023-07-20T01:24:39;2.10;;;1.90;;
17947;SDS011;9099;47.958;11.366;2023-07-20T01:30:39;3.30;;;1.90;;
17947;SDS011;9099;47.958;11.366;2023-07-20T01:33:15;4.25;;;1.90;;
17947;SDS011;9099;47.958;11.366;2023-07-20T01:35:43;2.53;;;1.83;;
17947;SDS011;9099;47.958;11.366;2023-07-20T01:38:11;1.75;;;1.65;;
17947;SDS011;9099;47.958;11.366;2023-07-20T01:40:39;2.40;;;2.00;;
17947;SDS011;9099;47.958;11.366;2023-07-20T01:43:07;2.40;;;2.17;;
17947;SDS011;9099;47.958;11.366;2023-07-20T01:45:34;3.45;;;2.00;;
17947;SDS011;9099;47.958;11.366;2023-07-20T01:48:00;2.45;;;2.25;;
17947;SDS011;9099;47.958;11.366;2023-07-20T01:50:29;3.55;;;2.22;;
17947;SDS011;9099;47.958;11.366;2023-07-20T01:52:56;3.05;;;2.40;;
17947;SDS011;9099;47.958;11.366;2023-07-20T01:55:23;2.08;;;1.88;;
17947;SDS011;9099;47.958;11.366;2023-07-20T01:57:50;2.40;;;2.20;;
17947;SDS011;9099;47.958;11.366;2023-07-20T02:00:17;2.75;;;2.00;;
17947;SDS011;9099;47.958;11.366;2023-07-20T02:02:46;2.17;;;1.98;;
17947;SDS011;9099;47.958;11.366;2023-07-20T02:05:13;2.20;;;2.00;;
17947;SDS011;9099;47.958;11.366;2023-07-20T02:07:41;2.08;;;1.90;;
17947;SDS011;9099;47.958;11.366;2023-07-20T02:10:08;3.17;;;2.00;;
17947;SDS011;9099;47.958;11.366;2023-07-20T02:12:35;3.50;;;1.85;;
17947;SDS011;9099;47.958;11.366;2023-07-20T02:15:02;2.15;;;1.77;;
17947;SDS011;9099;47.958;11.366;2023-07-20T02:17:30;2.20;;;2.00;;
17947;SDS011;9099;47.958;11.366;2023-07-20T02:19:56;2.40;;;2.00;;
17947;SDS011;9099;47.958;11.366;2023-07-20T02:22:23;2.08;;;1.85;;
17947;SDS011;9099;47.958;11.366;2023-07-20T02:24:51;2.00;;;1.75;;
17947;SDS011;9099;47.958;11.366;2023-07-20T02:27:18;1.73;;;1.63;;
17947;SDS011;9099;47.958;11.366;2023-07-20T02:29:45;2.95;;;1.67;;
17947;SDS011;9099;47.958;11.366;2023-07-20T02:32:12;2.13;;;1.65;;
17947;SDS011;9099;47.958;11.366;2023-07-20T02:34:39;1.85;;;1.70;;
17947;SDS011;9099;47.958;11.366;2023-07-20T02:37:06;1.77;;;1.67;;
17947;SDS011;9099;47.958;11.366;2023-07-20T02:39:32;3.92;;;1.85;;
17947;SDS011;9099;47.958;11.366;2023-07-20T02:42:01;1.60;;;1.50;;
17947;SDS011;9099;47.958;11.366;2023-07-20T02:44:27;2.30;;;2.10;;
17947;SDS011;9099;47.958;11.366;2023-07-20T02:46:55;2.08;;;1.88;;
17947;SDS011;9099;47.958;11.366;2023-07-20T02:49:22;2.72;;;2.13;;
17947;SDS011;9099;47.958;11.366;2023-07-20T02:51:48;2.35;;;2.15;;
17947;SDS011;9099;47.958;11.366;2023-07-20T02:54:15;1.80;;;1.70;;
17947;SDS011;9099;47.958;11.366;2023-07-20T02:56:42;4.60;;;1.88;;
17947;SDS011;9099;47.958;11.366;2023-07-20T02:59:10;2.00;;;1.90;;
17947;SDS011;9099;47.958;11.366;2023-07-20T03:01:37;2.35;;;1.60;;
17947;SDS011;9099;47.958;11.366;2023-07-20T03:04:04;2.10;;;1.48;;
17947;SDS011;9099;47.958;11.366;2023-07-20T03:06:32;1.92;;;1.58;;
17947;SDS011;9099;47.958;11.366;2023-07-20T03:09:01;3.22;;;1.50;;
17947;SDS011;9099;47.958;11.366;2023-07-20T03:11:28;1.88;;;1.23;;
17947;SDS011;9099;47.958;11.366;2023-07-20T03:13:55;1.25;;;1.15;;
17947;SDS011;9099;47.958;11.366;2023-07-20T03:16:24;3.15;;;1.50;;
17947;SDS011;9099;47.958;11.366;2023-07-20T03:18:51;1.75;;;1.52;;
17947;SDS011;9099;47.958;11.366;2023-07-20T03:21:18;2.53;;;1.40;;
17947;SDS011;9099;47.958;11.366;2023-07-20T03:23:45;2.85;;;1.65;;
17947;SDS011;9099;47.958;11.366;2023-07-20T03:26:12;3.58;;;1.38;;
17947;SDS011;9099;47.958;11.366;2023-07-20T03:28:39;1.35;;;1.25;;
17947;SDS011;9099;47.958;11.366;2023-07-20T03:31:05;2.28;;;1.38;;
17947;SDS011;9099;47.958;11.366;2023-07-20T03:33:34;1.45;;;1.30;;
17947;SDS011;9099;47.958;11.366;2023-07-20T03:36:00;1.50;;;1.40;;
17947;SDS011;9099;47.958;11.366;2023-07-20T03:38:27;1.23;;;1.13;;
17947;SDS011;9099;47.958;11.366;2023-07-20T03:40:55;1.40;;;1.30;;
17947;SDS011;9099;47.958;11.366;2023-07-20T03:43:23;1.63;;;1.23;;
17947;SDS011;9099;47.958;11.366;2023-07-20T03:45:50;2.75;;;1.50;;
17947;SDS011;9099;47.958;11.366;2023-07-20T03:48:19;1.60;;;1.50;;
17947;SDS011;9099;47.958;11.366;2023-07-20T03:50:48;1.40;;;1.30;;
17947;SDS011;9099;47.958;11.366;2023-07-20T03:53:15;1.73;;;1.50;;
17947;SDS011;9099;47.958;11.366;2023-07-20T03:55:44;1.52;;;1.40;;
17947;SDS011;9099;47.958;11.366;2023-07-20T03:58:11;1.77;;;1.33;;
17947;SDS011;9099;47.958;11.366;2023-07-20T04:00:38;1.60;;;1.30;;
17947;SDS011;9099;47.958;11.366;2023-07-20T04:03:05;1.63;;;1.50;;
17947;SDS011;9099;47.958;11.366;2023-07-20T04:05:32;2.08;;;1.40;;
17947;SDS011;9099;47.958;11.366;2023-07-20T04:08:00;2.15;;;1.30;;
17947;SDS011;9099;47.958;11.366;2023-07-20T04:10:27;1.40;;;1.30;;
17947;SDS011;9099;47.958;11.366;2023-07-20T04:12:54;2.75;;;1.45;;
17947;SDS011;9099;47.958;11.366;2023-07-20T04:15:21;1.55;;;1.33;;
17947;SDS011;9099;47.958;11.366;2023-07-20T04:17:48;2.03;;;1.60;;
17947;SDS011;9099;47.958;11.366;2023-07-20T04:20:15;2.35;;;1.40;;
17947;SDS011;9099;47.958;11.366;2023-07-20T04:22:43;2.10;;;1.40;;
17947;SDS011;9099;47.958;11.366;2023-07-20T04:25:11;1.50;;;1.33;;
17947;SDS011;9099;47.958;11.366;2023-07-20T04:27:38;1.38;;;1.27;;
17947;SDS011;9099;47.958;11.366;2023-07-20T04:30:06;1.50;;;1.40;;
17947;SDS011;9099;47.958;11.366;2023-07-20T04:32:34;1.40;;;1.30;;
17947;SDS011;9099;47.958;11.366;2023-07-20T04:35:00;1.50;;;1.40;;
17947;SDS011;9099;47.958;11.366;2023-07-20T04:37:28;2.95;;;1.73;;
17947;SDS011;9099;47.958;11.366;2023-07-20T04:39:54;3.00;;;1.50;;
17947;SDS011;9099;47.958;11.366;2023-07-20T04:42:22;2.20;;;1.40;;
17947;SDS011;9099;47.958;11.366;2023-07-20T04:44:49;1.60;;;1.50;;
17947;SDS011;9099;47.958;11.366;2023-07-20T04:47:16;2.60;;;1.52;;
17947;SDS011;9099;47.958;11.366;2023-07-20T04:49:43;1.35;;;1.25;;
17947;SDS011;9099;47.958;11.366;2023-07-20T04:52:10;1.67;;;1.58;;
17947;SDS011;9099;47.958;11.366;2023-07-20T04:54:36;2.78;;;1.63;;
17947;SDS011;9099;47.958;11.366;2023-07-20T04:57:04;2.38;;;1.70;;
17947;SDS011;9099;47.958;11.366;2023-07-20T04:59:37;1.42;;;1.30;;
17947;SDS011;9099;47.958;11.366;2023-07-20T05:02:04;1.45;;;1.35;;
17947;SDS011;9099;47.958;11.366;2023-07-20T05:04:31;1.70;;;1.60;;
17947;SDS011;9099;47.958;11.366;2023-07-20T05:06:57;1.88;;;1.50;;
17947;SDS011;9099;47.958;11.366;2023-07-20T05:09:24;4.35;;;2.22;;
17947;SDS011;9099;47.958;11.366;2023-07-20T05:11:51;1.65;;;1.55;;
17947;SDS011;9099;47.958;11.366;2023-07-20T05:14:18;2.08;;;1.60;;
17947;SDS011;9099;47.958;11.366;2023-07-20T05:16:46;3.22;;;1.75;;
17947;SDS011;9099;47.958;11.366;2023-07-20T05:19:13;1.77;;;1.67;;
17947;SDS011;9099;47.958;11.366;2023-07-20T05:21:39;2.28;;;1.60;;
17947;SDS011;9099;47.958;11.366;2023-07-20T05:24:07;1.98;;;1.67;;
17947;SDS011;9099;47.958;11.366;2023-07-20T05:26:33;3.63;;;1.88;;
17947;SDS011;9099;47.958;11.366;2023-07-20T05:29:00;2.25;;;1.60;;
17947;SDS011;9099;47.958;11.366;2023-07-20T05:31:27;2.45;;;1.88;;
17947;SDS011;9099;47.958;11.366;2023-07-20T05:33:57;1.80;;;1.60;;
17947;SDS011;9099;47.958;11.366;2023-07-20T05:36:24;1.75;;;1.55;;
17947;SDS011;9099;47.958;11.366;2023-07-20T05:38:50;3.10;;;1.80;;
17947;SDS011;9099;47.958;11.366;2023-07-20T05:41:18;2.08;;;1.58;;
17947;SDS011;9099;47.958;11.366;2023-07-20T05:43:44;2.58;;;1.92;;
17947;SDS011;9099;47.958;11.366;2023-07-20T05:46:11;1.90;;;1.80;;
17947;SDS011;9099;47.958;11.366;2023-07-20T05:48:38;1.90;;;1.80;;
17947;SDS011;9099;47.958;11.366;2023-07-20T05:51:06;2.45;;;1.73;;
17947;SDS011;9099;47.958;11.366;2023-07-20T05:53:34;3.05;;;2.00;;
17947;SDS011;9099;47.958;11.366;2023-07-20T05:56:01;2.15;;;1.70;;
17947;SDS011;9099;47.958;11.366;2023-07-20T05:58:29;2.30;;;2.10;;
17947;SDS011;9099;47.958;11.366;2023-07-20T06:00:56;2.10;;;1.90;;
17947;SDS011;9099;47.958;11.366;2023-07-20T06:03:23;1.83;;;1.67;;
17947;SDS011;9099;47.958;11.366;2023-07-20T06:05:50;2.72;;;1.73;;
17947;SDS011;9099;47.958;11.366;2023-07-20T06:08:18;1.95;;;1.75;;
17947;SDS011;9099;47.958;11.366;2023-07-20T06:10:49;5.10;;;1.80;;
17947;SDS011;9099;47.958;11.366;2023-07-20T06:13:17;2.22;;;1.83;;
17947;SDS011;9099;47.958;11.366;2023-07-20T06:15:44;2.10;;;1.70;;
17947;SDS011;9099;47.958;11.366;2023-07-20T06:18:10;2.50;;;1.98;;
17947;SDS011;9099;47.958;11.366;2023-07-20T06:20:37;2.05;;;1.88;;
17947;SDS011;9099;47.958;11.366;2023-07-20T06:23:04;1.73;;;1.63;;
17947;SDS011;9099;47.958;11.366;2023-07-20T06:25:32;2.65;;;1.98;;
17947;SDS011;9099;47.958;11.366;2023-07-20T06:27:59;2.08;;;1.58;;
17947;SDS011;9099;47.958;11.366;2023-07-20T06:30:26;2.15;;;1.77;;
17947;SDS011;9099;47.958;11.366;2023-07-20T06:32:53;1.70;;;1.60;;
17947;SDS011;9099;47.958;11.366;2023-07-20T06:35:20;2.88;;;1.70;;
17947;SDS011;9099;47.958;11.366;2023-07-20T06:37:46;3.50;;;2.03;;
17947;SDS011;9099;47.958;11.366;2023-07-20T06:40:13;1.70;;;1.60;;
17947;SDS011;9099;47.958;11.366;2023-07-20T06:42:41;1.63;;;1.50;;
17947;SDS011;9099;47.958;11.366;2023-07-20T06:45:09;1.90;;;1.70;;
17947;SDS011;9099;47.958;11.366;2023-07-20T06:47:37;2.25;;;1.42;;
17947;SDS011;9099;47.958;11.366;2023-07-20T06:50:05;2.15;;;1.70;;
17947;SDS011;9099;47.958;11.366;2023-07-20T06:52:32;2.38;;;2.15;;
17947;SDS011;9099;47.958;11.366;2023-07-20T06:54:59;1.88;;;1.77;;
17947;SDS011;9099;47.958;11.366;2023-07-20T06:57:26;1.90;;;1.80;;
17947;SDS011;9099;47.958;11.366;2023-07-20T06:59:54;4.50;;;2.13;;
17947;SDS011;9099;47.958;11.366;2023-07-20T07:02:21;1.88;;;1.77;;
17947;SDS011;9099;47.958;11.366;2023-07-20T07:04:48;1.92;;;1.75;;
17947;SDS011;9099;47.958;11.366;2023-07-20T07:07:14;2.10;;;2.00;;
17947;SDS011;9099;47.958;11.366;2023-07-20T07:09:41;2.53;;;2.30;;
17947;SDS011;9099;47.958;11.366;2023-07-20T07:12:08;1.92;;;1.80;;
17947;SDS011;9099;47.958;11.366;2023-07-20T07:14:35;2.97;;;2.00;;
17947;SDS011;9099;47.958;11.366;2023-07-20T07:17:03;1.90;;;1.80;;
17947;SDS011;9099;47.958;11.366;2023-07-20T07:19:31;2.55;;;1.80;;
17947;SDS011;9099;47.958;11.366;2023-07-20T07:21:58;1.92;;;1.83;;
17947;SDS011;9099;47.958;11.366;2023-07-20T07:24:24;1.73;;;1.63;;
17947;SDS011;9099;47.958;11.366;2023-07-20T07:26:52;2.33;;;1.80;;
17947;SDS011;9099;47.958;11.366;2023-07-20T07:29:19;2.80;;;1.90;;
17947;SDS011;9099;47.958;11.366;2023-07-20T07:31:46;1.90;;;1.80;;
17947;SDS011;9099;47.958;11.366;2023-07-20T07:34:14;2.30;;;2.00;;
17947;SDS011;9099;47.958;11.366;2023-07-20T07:36:41;2.00;;;1.90;;
17947;SDS011;9099;47.958;11.366;2023-07-20T07:39:09;3.30;;;2.10;;
17947;SDS011;9099;47.958;11.366;2023-07-20T07:41:36;2.20;;;2.00;;
17947;SDS011;9099;47.958;11.366;2023-07-20T07:44:03;3.33;;;2.38;;
17947;SDS011;9099;47.958;11.366;2023-07-20T07:46:30;3.22;;;2.00;;
17947;SDS011;9099;47.958;11.366;2023-07-20T07:48:57;1.92;;;1.77;;
17947;SDS011;9099;47.958;11.366;2023-07-20T07:51:25;2.30;;;2.10;;
17947;SDS011;9099;47.958;11.366;2023-07-20T07:53:53;2.38;;;2.17;;
17947;SDS011;9099;47.958;11.366;2023-07-20T07:56:20;2.30;;;2.10;;
17947;SDS011;9099;47.958;11.366;2023-07-20T07:58:47;2.92;;;2.13;;
17947;SDS011;9099;47.958;11.366;2023-07-20T08:01:14;2.80;;;2.03;;
17947;SDS011;9099;47.958;11.366;2023-07-20T08:03:41;2.13;;;2.03;;
17947;SDS011;9099;47.958;11.366;2023-07-20T08:06:10;3.10;;;1.92;;
17947;SDS011;9099;47.958;11.366;2023-07-20T08:08:39;2.33;;;2.20;;
17947;SDS011;9099;47.958;11.366;2023-07-20T08:11:06;2.90;;;2.55;;
17947;SDS011;9099;47.958;11.366;2023-07-20T08:13:32;1.98;;;1.88;;
17947;SDS011;9099;47.958;11.366;2023-07-20T08:15:59;2.90;;;2.05;;
17947;SDS011;9099;47.958;11.366;2023-07-20T08:18:27;2.42;;;2.13;;
17947;SDS011;9099;47.958;11.366;2023-07-20T08:20:54;2.30;;;2.00;;
17947;SDS011;9099;47.958;11.366;2023-07-20T08:23:21;1.83;;;1.70;;
17947;SDS011;9099;47.958;11.366;2023-07-20T08:25:49;1.95;;;1.85;;
17947;SDS011;9099;47.958;11.366;2023-07-20T08:28:16;2.20;;;2.00;;
17947;SDS011;9099;47.958;11.366;2023-07-20T08:30:43;1.90;;;1.80;;
17947;SDS011;9099;47.958;11.366;2023-07-20T08:33:12;2.20;;;2.00;;
17947;SDS011;9099;47.958;11.366;2023-07-20T08:35:40;2.20;;;2.00;;
17947;SDS011;9099;47.958;11.366;2023-07-20T08:38:06;3.78;;;2.38;;
17947;SDS011;9099;47.958;11.366;2023-07-20T08:40:34;2.17;;;1.98;;
17947;SDS011;9099;47.958;11.366;2023-07-20T08:43:07;2.80;;;2.60;;
17947;SDS011;9099;47.958;11.366;2023-07-20T08:45:34;2.15;;;1.98;;
17947;SDS011;9099;47.958;11.366;2023-07-20T08:48:04;4.22;;;2.30;;
17947;SDS011;9099;47.958;11.366;2023-07-20T08:50:33;2.30;;;2.10;;
17947;SDS011;9099;47.958;11.366;2023-07-20T08:53:00;2.72;;;2.00;;
17947;SDS011;9099;47.958;11.366;2023-07-20T08:55:28;2.42;;;2.22;;
17947;SDS011;9099;47.958;11.366;2023-07-20T08:57:55;2.58;;;2.38;;
17947;SDS011;9099;47.958;11.366;2023-07-20T09:00:25;2.22;;;2.08;;
17947;SDS011;9099;47.958;11.366;2023-07-20T09:02:53;2.80;;;2.00;;
17947;SDS011;9099;47.958;11.366;2023-07-20T09:05:21;2.80;;;2.13;;
17947;SDS011;9099;47.958;11.366;2023-07-20T09:07:49;3.80;;;2.42;;
17947;SDS011;9099;47.958;11.366;2023-07-20T09:10:17;2.47;;;2.20;;
17947;SDS011;9099;47.958;11.366;2023-07-20T09:12:44;2.47;;;2.30;;
17947;SDS011;9099;47.958;11.366;2023-07-20T09:15:11;2.90;;;2.70;;
17947;SDS011;9099;47.958;11.366;2023-07-20T09:17:39;3.90;;;3.60;;
17947;SDS011;9099;47.958;11.366;2023-07-20T09:20:12;2.70;;;2.50;;
17947;SDS011;9099;47.958;11.366;2023-07-20T09:22:40;2.78;;;2.50;;
17947;SDS011;9099;47.958;11.366;2023-07-20T09:25:10;2.65;;;2.45;;
17947;SDS011;9099;47.958;11.366;2023-07-20T09:27:38;2.92;;;2.05;;
17947;SDS011;9099;47.958;11.366;2023-07-20T09:30:07;2.50;;;2.30;;
17947;SDS011;9099;47.958;11.366;2023-07-20T09:32:41;2.63;;;2.42;;
17947;SDS011;9099;47.958;11.366;2023-07-20T09:35:12;2.83;;;2.38;;
17947;SDS011;9099;47.958;11.366;2023-07-20T09:37:42;2.80;;;2.33;;
17947;SDS011;9099;47.958;11.366;2023-07-20T09:40:14;4.07;;;2.22;;
17947;SDS011;9099;47.958;11.366;2023-07-20T09:42:42;2.47;;;2.30;;
17947;SDS011;9099;47.958;11.366;2023-07-20T09:45:10;2.30;;;2.20;;
17947;SDS011;9099;47.958;11.366;2023-07-20T09:47:37;2.60;;;2.40;;
17947;SDS011;9099;47.958;11.366;2023-07-20T09:50:07;2.47;;;2.28;;
17947;SDS011;9099;47.958;11.366;2023-07-20T09:52:40;2.60;;;2.28;;
17947;SDS011;9099;47.958;11.366;2023-07-20T09:55:09;16.40;;;2.42;;
17947;SDS011;9099;47.958;11.366;2023-07-20T09:57:38;2.40;;;2.20;;
17947;SDS011;9099;47.958;11.366;2023-07-20T10:00:06;2.50;;;2.30;;
17947;SDS011;9099;47.958;11.366;2023-07-20T10:02:40;3.05;;;2.58;;
17947;SDS011;9099;47.958;11.366;2023-07-20T10:05:11;2.58;;;2.38;;
17947;SDS011;9099;47.958;11.366;2023-07-20T10:07:40;2.53;;;2.33;;
17947;SDS011;9099;47.958;11.366;2023-07-20T10:10:10;3.25;;;2.40;;
17947;SDS011;9099;47.958;11.366;2023-07-20T10:12:37;2.35;;;2.25;;
17947;SDS011;9099;47.958;11.366;2023-07-20T10:15:08;2.45;;;2.20;;
17947;SDS011;9099;47.958;11.366;2023-07-20T10:17:39;2.15;;;2.05;;
17947;SDS011;9099;47.958;11.366;2023-07-20T10:20:16;2.33;;;2.10;;
17947;SDS011;9099;47.958;11.366;2023-07-20T10:22:46;2.22;;;2.00;;
17947;SDS011;9099;47.958;11.366;2023-07-20T10:25:15;2.33;;;2.13;;
17947;SDS011;9099;47.958;11.366;2023-07-20T10:27:45;1.95;;;1.85;;
17947;SDS011;9099;47.958;11.366;2023-07-20T10:30:13;2.05;;;1.80;;
17947;SDS011;9099;47.958;11.366;2023-07-20T10:32:40;2.65;;;2.30;;
17947;SDS011;9099;47.958;11.366;2023-07-20T10:35:16;2.38;;;2.13;;
17947;SDS011;9099;47.958;11.366;2023-07-20T10:37:46;2.58;;;1.95;;
17947;SDS011;9099;47.958;11.366;2023-07-20T10:40:31;2.53;;;2.05;;
17947;SDS011;9099;47.958;11.366;2023-07-20T10:42:59;1.90;;;1.80;;
17947;SDS011;9099;47.958;11.366;2023-07-20T10:45:41;2.30;;;2.10;;
17947;SDS011;9099;47.958;11.366;2023-07-20T10:48:15;2.13;;;1.92;;
17947;SDS011;9099;47.958;11.366;2023-07-20T10:53:40;3.28;;;2.00;;
17947;SDS011;9099;47.958;11.366;2023-07-20T10:56:08;2.55;;;1.80;;
17947;SDS011;9099;47.958;11.366;2023-07-20T10:58:38;1.88;;;1.77;;
17947;SDS011;9099;47.958;11.366;2023-07-20T11:01:06;1.85;;;1.75;;
17947;SDS011;9099;47.958;11.366;2023-07-20T11:03:33;3.55;;;1.77;;
17947;SDS011;9099;47.958;11.366;2023-07-20T11:09:04;1.70;;;1.60;;
17947;SDS011;9099;47.958;11.366;2023-07-20T11:11:33;2.38;;;1.98;;
17947;SDS011;9099;47.958;11.366;2023-07-20T11:14:01;3.50;;;2.03;;
17947;SDS011;9099;47.958;11.366;2023-07-20T11:16:35;2.08;;;1.88;;
17947;SDS011;9099;47.958;11.366;2023-07-20T11:19:04;1.90;;;1.80;;
17947;SDS011;9099;47.958;11.366;2023-07-20T11:21:36;2.40;;;1.67;;
17947;SDS011;9099;47.958;11.366;2023-07-20T11:24:06;2.45;;;1.88;;
17947;SDS011;9099;47.958;11.366;2023-07-20T11:26:41;1.92;;;1.80;;
17947;SDS011;9099;47.958;11.366;2023-07-20T11:29:09;2.10;;;2.00;;
17947;SDS011;9099;47.958;11.366;2023-07-20T11:31:36;2.22;;;2.00;;
17947;SDS011;9099;47.958;11.366;2023-07-20T11:34:04;1.73;;;1.63;;
17947;SDS011;9099;47.958;11.366;2023-07-20T11:36:30;3.08;;;1.92;;
17947;SDS011;9099;47.958;11.366;2023-07-20T11:38:59;2.95;;;2.00;;
17947;SDS011;9099;47.958;11.366;2023-07-20T11:41:26;1.75;;;1.65;;
17947;SDS011;9099;47.958;11.366;2023-07-20T11:47:15;1.73;;;1.63;;
17947;SDS011;9099;47.958;11.366;2023-07-20T11:49:43;2.00;;;1.65;;
17947;SDS011;9099;47.958;11.366;2023-07-20T11:52:15;2.85;;;1.85;;
17947;SDS011;9099;47.958;11.366;2023-07-20T11:54:44;1.80;;;1.70;;
17947;SDS011;9099;47.958;11.366;2023-07-20T11:57:16;2.65;;;1.80;;
17947;SDS011;9099;47.958;11.366;2023-07-20T11:59:52;2.42;;;1.88;;
17947;SDS011;9099;47.958;11.366;2023-07-20T12:02:20;2.90;;;1.75;;
17947;SDS011;9099;47.958;11.366;2023-07-20T12:04:47;1.80;;;1.70;;
17947;SDS011;9099;47.958;11.366;2023-07-20T12:07:15;2.35;;;2.15;;
17947;SDS011;9099;47.958;11.366;2023-07-20T12:09:41;1.95;;;1.80;;
17947;SDS011;9099;47.958;11.366;2023-07-20T12:12:10;2.15;;;1.70;;
17947;SDS011;9099;47.958;11.366;2023-07-20T12:14:38;3.25;;;1.88;;
17947;SDS011;9099;47.958;11.366;2023-07-20T12:17:07;1.88;;;1.75;;
17947;SDS011;9099;47.958;11.366;2023-07-20T12:19:37;1.95;;;1.83;;
17947;SDS011;9099;47.958;11.366;2023-07-20T12:22:05;2.55;;;1.88;;
17947;SDS011;9099;47.958;11.366;2023-07-20T12:24:32;1.75;;;1.65;;
17947;SDS011;9099;47.958;11.366;2023-07-20T12:27:01;2.15;;;1.67;;
17947;SDS011;9099;47.958;11.366;2023-07-20T12:29:29;1.85;;;1.70;;
17947;SDS011;9099;47.958;11.366;2023-07-20T12:31:57;1.80;;;1.70;;
17947;SDS011;9099;47.958;11.366;2023-07-20T12:34:24;1.70;;;1.60;;
17947;SDS011;9099;47.958;11.366;2023-07-20T12:36:50;2.08;;;1.90;;
17947;SDS011;9099;47.958;11.366;2023-07-20T12:39:17;2.95;;;1.90;;
17947;SDS011;9099;47.958;11.366;2023-07-20T12:41:44;2.05;;;1.80;;
17947;SDS011;9099;47.958;11.366;2023-07-20T12:44:12;1.90;;;1.70;;
17947;SDS011;9099;47.958;11.366;2023-07-20T12:46:39;1.95;;;1.85;;
17947;SDS011;9099;47.958;11.366;2023-07-20T12:49:06;1.80;;;1.70;;
17947;SDS011;9099;47.958;11.366;2023-07-20T12:51:33;1.80;;;1.65;;
17947;SDS011;9099;47.958;11.366;2023-07-20T12:54:00;1.90;;;1.80;;
17947;SDS011;9099;47.958;11.366;2023-07-20T12:56:27;2.75;;;1.95;;
17947;SDS011;9099;47.958;11.366;2023-07-20T13:02:17;1.88;;;1.77;;
17947;SDS011;9099;47.958;11.366;2023-07-20T13:04:44;2.15;;;1.90;;
17947;SDS011;9099;47.958;11.366;2023-07-20T13:07:11;1.88;;;1.73;;
17947;SDS011;9099;47.958;11.366;2023-07-20T13:09:38;2.92;;;1.75;;
17947;SDS011;9099;47.958;11.366;2023-07-20T13:12:05;1.90;;;1.80;;
17947;SDS011;9099;47.958;11.366;2023-07-20T13:14:32;2.50;;;2.10;;
17947;SDS011;9099;47.958;11.366;2023-07-20T13:16:59;2.17;;;1.98;;
17947;SDS011;9099;47.958;11.366;2023-07-20T13:19:27;2.55;;;1.80;;
17947;SDS011;9099;47.958;11.366;2023-07-20T13:21:54;1.73;;;1.63;;
17947;SDS011;9099;47.958;11.366;2023-07-20T13:24:21;1.77;;;1.67;;
17947;SDS011;9099;47.958;11.366;2023-07-20T13:26:48;3.70;;;1.92;;
17947;SDS011;9099;47.958;11.366;2023-07-20T13:29:15;2.90;;;1.80;;
17947;SDS011;9099;47.958;11.366;2023-07-20T13:31:42;2.83;;;1.90;;
17947;SDS011;9099;47.958;11.366;2023-07-20T13:34:09;3.97;;;2.10;;
17947;SDS011;9099;47.958;11.366;2023-07-20T13:36:37;2.08;;;1.90;;
17947;SDS011;9099;47.958;11.366;2023-07-20T13:39:04;2.13;;;1.70;;
17947;SDS011;9099;47.958;11.366;2023-07-20T13:41:30;2.33;;;1.75;;
17947;SDS011;9099;47.958;11.366;2023-07-20T13:43:58;1.85;;;1.73;;
17947;SDS011;9099;47.958;11.366;2023-07-20T13:46:24;1.70;;;1.60;;
17947;SDS011;9099;47.958;11.366;2023-07-20T13:48:51;3.22;;;2.00;;
17947;SDS011;9099;47.958;11.366;2023-07-20T13:51:18;1.70;;;1.60;;
17947;SDS011;9099;47.958;11.366;2023-07-20T13:53:47;1.75;;;1.65;;
17947;SDS011;9099;47.958;11.366;2023-07-20T13:56:14;7.65;;;1.85;;
17947;SDS011;9099;47.958;11.366;2023-07-20T13:58:41;1.90;;;1.80;;
17947;SDS011;9099;47.958;11.366;2023-07-20T14:01:08;2.40;;;1.98;;
17947;SDS011;9099;47.958;11.366;2023-07-20T14:03:34;1.75;;;1.65;;
17947;SDS011;9099;47.958;11.366;2023-07-20T14:06:02;2.38;;;1.77;;
17947;SDS011;9099;47.958;11.366;2023-07-20T14:08:29;2.08;;;1.98;;
17947;SDS011;9099;47.958;11.366;2023-07-20T14:10:57;1.83;;;1.73;;
17947;SDS011;9099;47.958;11.366;2023-07-20T14:13:24;2.35;;;1.65;;
17947;SDS011;9099;47.958;11.366;2023-07-20T14:15:51;3.03;;;2.00;;
17947;SDS011;9099;47.958;11.366;2023-07-20T14:18:18;2.15;;;1.70;;
17947;SDS011;9099;47.958;11.366;2023-07-20T14:20:45;1.63;;;1.52;;
17947;SDS011;9099;47.958;11.366;2023-07-20T14:23:11;2.97;;;1.88;;
17947;SDS011;9099;47.958;11.366;2023-07-20T14:25:38;2.00;;;1.90;;
17947;SDS011;9099;47.958;11.366;2023-07-20T14:28:07;1.77;;;1.67;;
17947;SDS011;9099;47.958;11.366;2023-07-20T14:30:34;3.40;;;1.90;;
17947;SDS011;9099;47.958;11.366;2023-07-20T14:33:00;2.53;;;2.10;;
17947;SDS011;9099;47.958;11.366;2023-07-20T14:35:27;2.40;;;1.50;;
17947;SDS011;9099;47.958;11.366;2023-07-20T14:37:54;1.55;;;1.45;;
17947;SDS011;9099;47.958;11.366;2023-07-20T14:40:21;2.00;;;1.90;;
17947;SDS011;9099;47.958;11.366;2023-07-20T14:42:48;1.88;;;1.70;;
17947;SDS011;9099;47.958;11.366;2023-07-20T14:45:16;1.95;;;1.85;;
17947;SDS011;9099;47.958;11.366;2023-07-20T14:47:43;1.95;;;1.75;;
17947;SDS011;9099;47.958;11.366;2023-07-20T14:50:10;1.83;;;1.73;;
17947;SDS011;9099;47.958;11.366;2023-07-20T14:52:37;2.58;;;1.85;;
17947;SDS011;9099;47.958;11.366;2023-07-20T14:55:04;2.10;;;1.90;;
17947;SDS011;9099;47.958;11.366;2023-07-20T14:57:32;1.50;;;1.40;;
17947;SDS011;9099;47.958;11.366;2023-07-20T14:59:58;1.90;;;1.77;;
17947;SDS011;9099;47.958;11.366;2023-07-20T15:02:26;1.90;;;1.80;;
17947;SDS011;9099;47.958;11.366;2023-07-20T15:04:53;2.80;;;2.60;;
17947;SDS011;9099;47.958;11.366;2023-07-20T15:07:21;2.15;;;1.95;;
17947;SDS011;9099;47.958;11.366;2023-07-20T15:09:48;1.92;;;1.80;;
17947;SDS011;9099;47.958;11.366;2023-07-20T15:12:15;2.08;;;1.60;;
17947;SDS011;9099;47.958;11.366;2023-07-20T15:14:42;1.98;;;1.60;;